Tiempo atmosférico en la estación meteorológica de Herrera Del Duque, Badajoz (447 m.)



Fecha
DESCASC
Temp. máxima en grados centígrados (hora)
DESCASC
Temp. mínima en grados centígrados (hora)
DESCASC
Temp. media en grados centígrados
DESCASC
Racha de viento máxima en m/sg (hora)
DESCASC
Velocidad máxima media en intervalos de 10 minutos(hora)
DESCASC
Precipitaciones diarias en mm
DESCASC
Precipitaciones de 00:00 a 06:00 en mm
DESCASC
Precipitaciones de 06:00 a 12:00 en mm
DESCASC
Precipitaciones de 12:00 a 18:00 en mm
DESCASC
Precipitaciones de 18:00 a 24:00 en mm
DESCASC
16-01-2020 -- (--) -- (--) -- -- (--) -- (--) 0 0 0 0 0
15-01-2020 -- (--) -- (--) -- -- (--) -- (--) 0 0 0 0 0
14-01-2020 -- (--) -- (--) -- -- (--) -- (--) 0 0 0 0 0
13-01-2020 -- (--) -- (--) -- -- (--) -- (--) 0 0 0 0 0
12-01-2020 14.2 (16:10) -1.3 (-00:0) 6.4 2.5 (13:20) 1.67 (18:40) 0 0 0 0 0
11-01-2020 14.5 (16:00) 1.8 (00:00) 8.1 4.72 (06:50) 2.78 (07:00) 0 0 0 0 0
10-01-2020 13.5 (14:30) 4.1 (00:00) 8.8 8.33 (16:30) 5.28 (17:40) 0 0 0 0 0
09-01-2020 14.6 (16:00) 0.2 (00:00) 7.4 5.28 (17:30) 3.33 (17:30) 0 0 0 0 0
08-01-2020 15.1 (16:50) -0.7 (-00:0) 7.2 2.22 (04:10) 1.67 (04:10) 0 0 0 0 0
07-01-2020 16.1 (17:10) -0.3 (00:00) 7.9 2.5 (00:10) 1.67 (03:50) 0 0 0 0 0
06-01-2020 15.8 (17:20) -0.9 (-00:0) 7.5 2.78 (23:59) 2.22 (23:59) 0 0 0 0 0
05-01-2020 16 (16:50) -0.4 (00:00) 7.8 3.06 (19:30) 2.22 (19:30) 0 0 0 0 0
04-01-2020 15 (16:20) 0.3 (00:00) 7.7 5.56 (16:30) 3.61 (16:50) 0 0 0 0 0
03-01-2020 10.6 (15:10) 3.4 (00:00) 7 3.89 (16:50) 2.78 (17:00) 0 0 0 0 0
02-01-2020 14.6 (17:10) 0.3 (00:00) 7.5 2.22 (22:40) 1.67 (22:40) 0 0 0 0 0
01-01-2020 13.5 (17:30) 0.7 (00:00) 7.1 2.22 (20:50) 1.67 (18:30) 0.2 0 0 0.2 0
31-12-2019 14 (17:10) 1.2 (00:00) 7.6 2.22 (03:40) 1.94 (19:00) 0 0 0 0 0
30-12-2019 16.3 (17:10) 1.7 (00:00) 9 2.5 (22:10) 1.67 (03:30) 0 0 0 0 0
29-12-2019 18.6 (16:50) 2.3 (00:00) 10.5 2.5 (01:50) 1.94 (01:50) 0.2 0 0.2 0 0
28-12-2019 19.2 (16:40) 3.6 (00:00) 11.4 2.22 (11:10) 1.67 (02:40) 0 0 0 0 0
27-12-2019 18.4 (16:50) 6 (00:00) 12.2 2.5 (00:40) 1.67 (00:40) 0.2 0 0.2 0 0
26-12-2019 18.1 (16:00) 4.8 (00:00) 11.5 3.61 (11:50) 2.5 (11:50) 0 0 0 0 0
25-12-2019 19.5 (16:40) 4.8 (00:00) 12.2 3.06 (20:20) 1.67 (01:40) 0.2 0 0.2 0 0
24-12-2019 18.9 (16:40) 5 (00:00) 11.9 -- (--) -- (--) 0.2 0 0.2 0 0
23-12-2019 15.4 (16:30) 7.6 (00:00) 11.5 -- (--) -- (--) 0 0 0 0 0
22-12-2019 14.3 (13:30) 11.9 (00:00) 13.1 -- (--) -- (--) 0 0 0 0 0
21-12-2019 16.6 (17:10) 12.5 (00:00) 14.6 -- (--) -- (--) 31.4 18 8.6 4.6 0.2
20-12-2019 16.6 (18:10) 13.3 (00:00) 15 -- (--) -- (--) 30.6 14.2 1.6 2.8 12

Gráficas

Temp. máximas Temp. mínimas Temp. medias Precipitaciones Rachas de viento máximas Velocidades máximas media en intervalos de 10 minutos

Datos horarios

Fecha y hora oficial Temperatura (ºC) Velocidad del viento (km/h) Dirección del viento Racha (km/h) Dirección de racha Precipitación (mm) Presión (hPa) Tendencia (hPa) Humedad (%)
2020-01-18 23:00:00 11.2 21 Oeste 45 Noroeste 0 970 0.3 71
2020-01-18 22:00:00 12.2 25 Oeste 50 Oeste 0 970 -0.2 79
2020-01-18 21:00:00 13.3 27 Oeste 49 Oeste 0 969.6 -1.4 79
2020-01-18 20:00:00 13.5 15 Sudoeste 36 Sudoeste 0 969.7 -1.9 82
2020-01-18 19:00:00 12.9 14 Sudoeste 27 Sudoeste 0 970.2 -2.1 85
2020-01-18 18:00:00 12.6 12 Sudoeste 29 Sudoeste 0 971 -2.1 86
2020-01-18 17:00:00 12.6 14 Sudoeste 25 Sudoeste 0 971.6 -2 86
2020-01-18 16:00:00 12.2 12 Sudoeste 24 Sudoeste 0.2 972.3 -2.7 88
2020-01-18 15:00:00 11.8 12 Sudoeste 25 Sur 0.6 973.1 -3.3 87
2020-01-18 14:00:00 11.2 14 Sur 24 Sur 0.4 973.6 -3 86
2020-01-18 13:00:00 10.9 9 Sur 19 Sudeste 0.4 975 -1.9 85
2020-01-18 12:00:00 10.3 8 Sur 26 Sudeste 0.4 976.4 -1 85
2020-01-18 11:00:00 9.7 10 Sudeste 21 Sudeste 0.6 976.6 -0.5 86
2020-01-18 10:00:00 9 10 Sudeste 18 Sudeste 0.4 976.9 -0.1 91
2020-01-18 09:00:00 7.5 2 Sur 6 Sudoeste 0.2 977.4 0.8 91
2020-01-18 08:00:00 7.2 4 Sudoeste 7 Noroeste 0.2 977.1 0.4 91
2020-01-18 07:00:00 7.3 0 Calma 13 Oeste 0.6 977 -0.1 91
2020-01-18 06:00:00 7.3 6 Oeste 9 Oeste 0 976.6 -1.1 90
2020-01-18 05:00:00 7.3 5 Nordeste 9 Oeste 0 976.7 -2 88
2020-01-18 04:00:00 7.4 4 Oeste 7 Sudoeste 0 977.1 -2 88
2020-01-18 03:00:00 7.4 2 Nordeste 6 Nordeste 0 977.7 -1.2 87
2020-01-18 02:00:00 7.3 2 Sur 16 Oeste 0 978.7 -0.3 87
2020-01-18 01:00:00 7.4 4 Noroeste 9 Oeste 0 979.1 -0.3 85
2020-01-18 00:00:00 7.7 3 Sur 6 Este 0 978.9 -0.5 83
2020-01-17 23:00:00 8.4 3 Sur 6 Sudeste 0 979 -0.1 82
2020-01-17 22:00:00 8.5 2 Sur 7 Sur 0 979.4 1 79
2020-01-17 21:00:00 8.5 0 Calma 9 Sur 0 979.4 1 78
2020-01-17 20:00:00 9.1 5 Sudeste 8 Sudoeste 0 979.1 0.6 73
2020-01-17 19:00:00 10.3 5 Sur 8 Sur 0 978.4 0.1 70
2020-01-17 18:00:00 12.6 6 Sudoeste 19 Sudoeste 0 978.4 -0.1 61
2020-01-17 17:00:00 13.5 10 Oeste 18 Sudoeste 0 978.5 -0.5 60
2020-01-17 16:00:00 13.5 7 Oeste 19 Oeste 0 978.3 -1.1 63
2020-01-17 15:00:00 13.5 9 Oeste 18 Oeste 0 978.5 -1.2 67
2020-01-17 14:00:00 12.9 12 Sudoeste 21 Oeste 0 979 -0.5 68
2020-01-17 13:00:00 12.6 12 Sudoeste 19 Oeste 0 979.4 0.6 68
2020-01-17 12:00:00 12.6 9 Sudoeste 20 Oeste 0 979.7 1.4 69
2020-01-17 11:00:00 11.4 11 Oeste 20 Oeste 0 979.5 2.2 75
2020-01-17 10:00:00 11.1 10 Oeste 21 Oeste 0 978.8 1.9 78
2020-01-17 09:00:00 10.1 9 Sudoeste 16 Sudoeste 0 978.3 2.2 83
2020-01-17 08:00:00 10 8 Oeste 14 Oeste 0 977.3 1.4 83
2020-01-17 07:00:00 10.3 4 Oeste 11 Sudoeste 0 976.9 1.4 80
2020-01-17 06:00:00 10.5 6 Sudoeste 15 Sudoeste 0 976.1 0.5 77
2020-01-17 05:00:00 10.8 7 Oeste 22 Sudoeste 0 975.9 0.5 74
2020-01-17 04:00:00 10.9 12 Sudoeste 28 Sudoeste 0 975.5 -0.1 70
2020-01-17 03:00:00 11.5 13 Sudoeste 26 Sudoeste 0 975.6 0.2 59
2020-01-17 02:00:00 11.4 12 Sudoeste 43 Sudoeste 0 975.4 0.3 53
2020-01-17 01:00:00 11.3 18 Sudoeste 37 Oeste 0 975.6 1.1 54
2020-01-17 00:00:00 12.5 18 Sudoeste 32 Sudoeste 0 975.4 1.2 42
2020-01-16 23:00:00 12.5 14 Sudoeste 28 Sudoeste 0 975.1 1.3 43
2020-01-16 22:00:00 12.7 12 Sur 28 Sudoeste 0 974.5 1.1 40
2020-01-16 21:00:00 13.3 14 Sudoeste 26 Sudoeste 0 974.2 1.3 38
2020-01-16 20:00:00 13.8 13 Sudoeste 23 Sudoeste 0 973.8 0.9 36
2020-01-16 19:00:00 14.1 11 Sudoeste 23 Sudoeste 0 973.4 0.3 39
2020-01-16 18:00:00 15.2 12 Sudoeste 28 Sudoeste 0 972.9 -0.5 34
2020-01-16 17:00:00 16.6 11 Sudoeste 24 Sudoeste 0 972.9 -1.2 30
2020-01-16 16:00:00 16.5 13 Sudoeste 24 Sudoeste 0 973.1 -1.7 38
2020-01-16 15:00:00 16.2 10 Sudoeste 23 Sudoeste 0 973.4 -2.1 37
2020-01-16 14:00:00 16.1 10 Sudoeste 23 Sudoeste 0 974.1 -1 34
2020-01-16 13:00:00 15.8 9 Sudoeste 18 Sudoeste 0 974.8 -0.4 38
2020-01-16 12:00:00 14.6 7 Sudoeste 16 Sudoeste 0 975.5 -- 44
2020-01-16 11:00:00 12.9 6 Este 11 Sudeste 0 975.1 -- 60
2020-01-16 10:00:00 11 4 Nordeste -- -- -- 975.2 -- 67
2020-01-16 09:00:00 -- -- -- -- -- -- -- -- --
2020-01-16 08:00:00 -- -- -- -- -- -- -- -- --
2020-01-16 07:00:00 -- -- -- -- -- -- -- -- --
2020-01-16 06:00:00 -- -- -- -- -- -- -- -- --
2020-01-16 05:00:00 -- -- -- -- -- -- -- -- --
2020-01-16 04:00:00 -- -- -- -- -- -- -- -- --
2020-01-16 03:00:00 -- -- -- -- -- -- -- -- --
2020-01-16 02:00:00 -- -- -- -- -- -- -- -- --
2020-01-16 01:00:00 -- -- -- -- -- -- -- -- --
2020-01-16 00:00:00 -- -- -- -- -- -- -- -- --
2020-01-15 23:00:00 -- -- -- -- -- -- -- -- --
2020-01-15 22:00:00 -- -- -- -- -- -- -- -- --
2020-01-15 21:00:00 -- -- -- -- -- -- -- -- --
2020-01-15 20:00:00 -- -- -- -- -- -- -- -- --
2020-01-15 19:00:00 -- -- -- -- -- -- -- -- --
2020-01-15 18:00:00 -- -- -- -- -- -- -- -- --
2020-01-15 17:00:00 -- -- -- -- -- -- -- -- --
2020-01-15 16:00:00 -- -- -- -- -- -- -- -- --
2020-01-15 15:00:00 -- -- -- -- -- -- -- -- --
2020-01-15 14:00:00 -- -- -- -- -- -- -- -- --
2020-01-15 13:00:00 -- -- -- -- -- -- -- -- --
2020-01-15 12:00:00 10.9 10 Sudoeste -- -- -- 973.6 -- 66
2020-01-15 11:00:00 -- -- -- -- -- -- -- -- --
2020-01-15 10:00:00 -- -- -- -- -- -- -- -- --
2020-01-15 09:00:00 -- -- -- -- -- -- -- -- --
2020-01-15 08:00:00 -- -- -- -- -- -- -- -- --
2020-01-15 07:00:00 -- -- -- -- -- -- -- -- --
2020-01-15 06:00:00 -- -- -- -- -- -- -- -- --
2020-01-15 05:00:00 -- -- -- -- -- -- -- -- --
2020-01-15 04:00:00 -- -- -- -- -- -- -- -- --
2020-01-15 03:00:00 -- -- -- -- -- -- -- -- --
2020-01-15 02:00:00 -- -- -- -- -- -- -- -- --
2020-01-15 01:00:00 -- -- -- -- -- -- -- -- --
2020-01-15 00:00:00 10 13 Sudoeste 27 Sur 0 970.8 0.4 65
2020-01-14 23:00:00 10.3 13 Sur 24 Sudoeste 0 970.7 0.4 63
2020-01-14 22:00:00 10.7 13 Sudoeste 22 Sudoeste 0 970.6 0.5 60
2020-01-14 21:00:00 10.2 6 Sur 12 Sur 0 970.4 0.7 61
2020-01-14 20:00:00 10 5 Sudeste 10 Este 0 970.3 0.6 63
2020-01-14 19:00:00 10.6 4 Sur 19 Sur 0 970.1 0.7 59
2020-01-14 18:00:00 10.9 6 Sudoeste 12 Sudoeste 0 969.7 0 57
2020-01-14 17:00:00 12.3 6 Sur 14 Sudoeste 0 969.7 -0.8 53
2020-01-14 16:00:00 12.6 5 Sur 12 Sudoeste 0 969.4 -1.9 53
2020-01-14 15:00:00 10.7 3 Norte 12 Noroeste 0 969.7 -2.4 63
2020-01-14 14:00:00 9.3 4 Noroeste 10 Oeste 0 970.5 -1.5 67
2020-01-14 13:00:00 7.6 4 Noroeste 9 Noroeste 0 971.3 -- 72
2020-01-14 12:00:00 4.8 3 Norte 7 Norte 0 972.1 -- 83
2020-01-14 11:00:00 1.1 5 Este -- -- -- 972 -- 94
2020-01-14 10:00:00 -- -- -- -- -- -- -- -- --
2020-01-14 09:00:00 -- -- -- -- -- -- -- -- --
2020-01-14 08:00:00 -- -- -- -- -- -- -- -- --
2020-01-14 07:00:00 -- -- -- -- -- -- -- -- --
2020-01-14 06:00:00 -- -- -- -- -- -- -- -- --
2020-01-14 05:00:00 -- -- -- -- -- -- -- -- --
2020-01-14 04:00:00 -- -- -- -- -- -- -- -- --
2020-01-14 03:00:00 -- -- -- -- -- -- -- -- --
2020-01-14 02:00:00 -- -- -- -- -- -- -- -- --
2020-01-14 01:00:00 -- -- -- -- -- -- -- -- --
2020-01-14 00:00:00 2.6 4 Sudeste 7 Sudoeste 0 971.9 0 82
2020-01-13 23:00:00 3.2 5 Sudoeste 13 Oeste 0 972.2 0.2 82
2020-01-13 22:00:00 3.5 3 Sudoeste 9 Sudeste 0 972 0 80
2020-01-13 21:00:00 4.9 5 Sudeste 8 Sudeste 0 971.9 0 72
2020-01-13 20:00:00 5.9 4 Sudeste 8 Sudoeste 0 972 0.1 71
2020-01-13 19:00:00 7.8 5 Sudoeste 9 Oeste 0 972 -0.1 63
2020-01-13 18:00:00 10.7 7 Oeste 16 Sudoeste 0 971.9 -0.6 48
2020-01-13 17:00:00 12.6 9 Sudoeste 14 Sudoeste 0 971.9 -1.4 42
2020-01-13 16:00:00 12.1 5 Oeste 13 Sudoeste 0 972.1 -2.2 46
2020-01-13 15:00:00 10.7 3 Norte 8 Noroeste 0 972.5 -2.5 60
2020-01-13 14:00:00 8.9 4 Noroeste 8 Noroeste 0 973.3 -1.7 65
2020-01-13 13:00:00 6.3 3 Oeste 8 Noroeste 0 974.3 -0.6 74
2020-01-13 12:00:00 4.3 4 Noroeste 9 Oeste 0 975 -- 79
2020-01-13 11:00:00 3.1 2 Norte 4 Norte 0.2 975 -- 86
2020-01-13 10:00:00 0.9 3 Nordeste -- -- -- 974.9 -- 88
2020-01-13 09:00:00 -- -- -- -- -- -- -- -- --
2020-01-13 08:00:00 -- -- -- -- -- -- -- -- --
2020-01-13 07:00:00 -- -- -- -- -- -- -- -- --
2020-01-13 06:00:00 -- -- -- -- -- -- -- -- --
2020-01-13 05:00:00 -0.7 0 Calma 4 Sur 0 974.7 -0.9 89
2020-01-13 04:00:00 0.4 4 Sudeste 6 Sudeste 0 975 -1.2 88
2020-01-13 03:00:00 1.3 4 Sudoeste 7 Sudoeste 0 975.4 -1.3 89
2020-01-13 02:00:00 1.3 4 Sudoeste 5 Sudoeste 0 975.6 -1.2 88
2020-01-13 01:00:00 1.5 0 Calma 7 Sudeste 0 976.2 -0.3 84
2020-01-13 00:00:00 2.1 2 Noroeste 4 Sudeste 0 976.7 0 84
2020-01-12 23:00:00 2.3 0 Calma 4 Sur 0 976.8 0.2 81
2020-01-12 22:00:00 2.8 0 Calma 3 Sur 0 976.5 0.3 80
2020-01-12 21:00:00 5.4 4 Sur 8 Sudeste 0 976.7 0.7 70
2020-01-12 20:00:00 6 4 Este 6 Sur 0 976.6 0.7 70
2020-01-12 19:00:00 7.5 4 Sur 8 Sudoeste 0 976.2 0.1 65
2020-01-12 18:00:00 11.3 6 Sudoeste 7 Sudoeste 0 976 -0.6 52
2020-01-12 17:00:00 13.7 2 Sur 7 Norte 0 975.9 -1.3 42
2020-01-12 16:00:00 13.6 2 Noroeste 7 Oeste 0 976.1 -2.2 45
2020-01-12 15:00:00 12.2 2 Sur 9 Oeste 0 976.6 -2.5 53
2020-01-12 14:00:00 9.9 4 Oeste 9 Noroeste 0 977.2 -2 60
2020-01-12 13:00:00 8.4 4 Oeste 8 Noroeste 0 978.3 -0.6 65
2020-01-12 12:00:00 6.9 2 Sudoeste 5 Noroeste 0 979.1 0.8 69
2020-01-12 11:00:00 4 0 Calma 6 Norte 0 979.2 0.9 77
2020-01-12 10:00:00 1.3 0 Calma 5 Norte 0 978.9 0.8 85
2020-01-12 09:00:00 -0.4 3 Sudoeste 5 Sudoeste 0 978.3 0.4 91
2020-01-12 08:00:00 -0.9 3 Sudoeste 5 Norte 0 978.3 0.2 89
2020-01-12 07:00:00 -0.5 0 Calma 2 Sudeste 0 978.1 -0.1 88
2020-01-12 06:00:00 0.7 2 Sudoeste 6 Sudoeste 0 977.9 -0.3 90
2020-01-12 05:00:00 0.3 3 Sudoeste 5 Sudoeste 0 978.1 0 89
2020-01-12 04:00:00 0.6 2 Sudoeste 5 Oeste 0 978.2 -0.2 88
2020-01-12 03:00:00 0.8 3 Norte 7 Sudeste 0 978.2 -0.1 84
2020-01-12 02:00:00 2 0 Calma 8 Sudoeste 0 978.1 -0.1 85
2020-01-12 01:00:00 2.2 3 Sur 5 Sudoeste 0 978.4 0.3 85
2020-01-12 00:00:00 2.8 0 Calma 4 Sudoeste 0 978.3 0.5 82
2020-01-11 23:00:00 3.5 3 Sudeste 6 Sur 0 978.2 0.7 77
2020-01-11 22:00:00 4.5 4 Sudoeste 6 Noroeste 0 978.1 1.1 77
2020-01-11 21:00:00 5.4 0 Calma 6 Sur 0 977.8 1.2 71
2020-01-11 20:00:00 6.4 2 Sur 9 Sudeste 0 977.5 1 68
2020-01-11 19:00:00 8.2 4 Sur 8 Sur 0 977 0.5 60
2020-01-11 18:00:00 11.6 6 Sur 8 Sur 0 976.6 -0.2 48
2020-01-11 17:00:00 13.9 6 Oeste 9 Oeste 0 976.5 -1 41
2020-01-11 16:00:00 14.4 3 Noroeste 11 Norte 0 976.5 -2.1 37
2020-01-11 15:00:00 13.1 5 Noroeste 13 Noroeste 0 976.8 -2.3 41
2020-01-11 14:00:00 12 5 Noroeste 9 Noroeste 0 977.5 -1.6 46
2020-01-11 13:00:00 10.9 3 Norte 8 Nordeste 0 978.6 0.1 49
2020-01-11 12:00:00 9.2 3 Noroeste 6 Oeste 0 979.1 1 55
2020-01-11 11:00:00 7.6 2 Nordeste 5 Sudeste 0 979.1 1.2 59
2020-01-11 10:00:00 4.5 3 Sur 6 Sudeste 0 978.5 1.1 70
2020-01-11 09:00:00 1.9 4 Sur 9 Oeste 0 978.1 0.7 78
2020-01-11 08:00:00 2.5 5 Sudoeste 9 Sudoeste 0 977.9 0.4 75
2020-01-11 07:00:00 3.1 10 Nordeste 17 Norte 0 977.4 -0.3 70
2020-01-11 06:00:00 2.6 5 Sudoeste 10 Sudoeste 0 977.4 0 74
2020-01-11 05:00:00 2 4 Sudoeste 9 Oeste 0 977.5 0.4 78
2020-01-11 04:00:00 2.3 4 Sur 8 Sudeste 0 977.7 0.5 77
2020-01-11 03:00:00 2.8 4 Sudoeste 8 Sudeste 0 977.4 0.1 74
2020-01-11 02:00:00 2.9 0 Calma 6 Sudeste 0 977.1 0.2 73
2020-01-11 01:00:00 3.4 3 Sur 10 Sudoeste 0 977.2 0.6 72
2020-01-11 00:00:00 4.1 5 Sudoeste 8 Sudoeste 0 977.3 1 70
2020-01-10 23:00:00 4.6 3 Sur 7 Sudeste 0 976.9 1.2 67
2020-01-10 22:00:00 5.5 2 Sur 7 Nordeste 0 976.6 1.2 65
2020-01-10 21:00:00 6.8 4 Noroeste 12 Este 0 976.3 1.5 59
2020-01-10 20:00:00 8.3 6 Sudeste 15 Nordeste 0 975.7 1.5 54
2020-01-10 19:00:00 9 8 Nordeste 22 Nordeste 0 975.4 1.6 51
2020-01-10 18:00:00 11 13 Nordeste 28 Nordeste 0 974.8 0.8 43
2020-01-10 17:00:00 12.8 15 Nordeste 30 Nordeste 0 974.2 -0.3 34
2020-01-10 16:00:00 13.2 11 Nordeste 28 Este 0 973.8 -1.5 39
2020-01-10 15:00:00 13.2 17 Nordeste 27 Nordeste 0 974 -1.5 41
2020-01-10 14:00:00 12.8 15 Nordeste -- -- 0 974.5 -0.9 41
2020-01-10 13:00:00 11.7 10 Este 23 Este 0 975.3 0.4 47
2020-01-10 12:00:00 10.2 5 Norte 18 Nordeste 0 975.5 1 63
2020-01-10 11:00:00 7 4 Oeste 9 Oeste 0 975.4 1.6 93
2020-01-10 10:00:00 5.8 3 Noroeste 6 Oeste 0 974.9 1.9 93
2020-01-10 09:00:00 5.2 4 Sudoeste 8 Oeste 0 974.5 1.7 93
2020-01-10 08:00:00 5.3 5 Oeste 8 Oeste 0 973.8 1.1 93
2020-01-10 07:00:00 5.1 3 Oeste 9 Sudoeste 0 973 0.4 93
2020-01-10 06:00:00 4.4 4 Nordeste 9 Nordeste 0 972.8 -0.2 91
2020-01-10 05:00:00 5.1 2 Noroeste 13 Sudoeste 0 972.7 -0.3 87
2020-01-10 04:00:00 5.7 5 Sudeste 9 Sudeste 0 972.6 -0.9 90
2020-01-10 03:00:00 5.6 3 Norte 5 Norte 0 973 -0.7 88
2020-01-10 02:00:00 6.3 0 Calma 4 Norte 0 973 -0.7 88
2020-01-10 01:00:00 6 3 Norte 14 Oeste 0 973.5 -0.5 85
2020-01-10 00:00:00 5.8 4 Noroeste 13 Oeste 0 973.7 -0.4 88
2020-01-09 23:00:00 5.5 3 Sudeste 6 Sudeste 0 973.7 -0.1 85
2020-01-09 22:00:00 6.9 3 Nordeste 5 Este 0 974 0.5 81
2020-01-09 21:00:00 7.6 2 Sudeste 8 Sudoeste 0 974.1 0.8 80
2020-01-09 20:00:00 8.3 3 Sur 9 Sur 0 973.8 0.9 80
2020-01-09 19:00:00 9.5 6 Sur 12 Sur 0 973.5 0.7 73
2020-01-09 18:00:00 11 6 Sudoeste 19 Oeste 0 973.3 0.1 66
2020-01-09 17:00:00 13.7 9 Sudoeste 14 Oeste 0 972.9 -1.2 55
2020-01-09 16:00:00 14.5 8 Sudoeste 15 Sudoeste 0 972.8 -2.4 50
2020-01-09 15:00:00 13.6 2 Sur 12 Noroeste 0 973.2 -1.9 54
2020-01-09 14:00:00 11.4 6 Noroeste 12 Oeste 0 974.1 -1.7 64
2020-01-09 13:00:00 8.2 9 Noroeste 13 Noroeste 0 975.2 0.2 77
2020-01-09 12:00:00 6.5 4 Norte 13 Este 0 975.1 0.6 88
2020-01-09 11:00:00 2.9 2 Este 13 Oeste 0 975.8 1.2 95
2020-01-09 10:00:00 0.9 4 Oeste 6 Norte 0 975 0.7 94
2020-01-09 09:00:00 0.3 3 Nordeste 7 Sur 0 974.5 0.4 93
2020-01-09 08:00:00 0.9 4 Noroeste 7 Sudoeste 0 974.6 0.5 93
2020-01-09 07:00:00 0.8 3 Noroeste 5 Sur 0 974.3 -0.3 91
2020-01-09 06:00:00 1.7 3 Sur 5 Sur 0 974.1 -0.6 92
2020-01-09 05:00:00 2.3 4 Sudeste 7 Sudeste 0 974.1 -0.8 90
2020-01-09 04:00:00 2.9 4 Sudoeste 6 Sudoeste 0 974.6 -0.5 91
2020-01-09 03:00:00 2.3 3 Noroeste 4 Norte 0 974.7 -0.7 89
2020-01-09 02:00:00 2.9 2 Sudeste 5 Sudeste 0 974.9 -0.4 89
2020-01-09 01:00:00 3.5 2 Sur 5 Sudeste 0 975.1 -0.1 88
2020-01-09 00:00:00 3.9 0 Calma 7 Sudoeste 0 975.4 0.3 85
2020-01-08 23:00:00 4.6 2 Sudoeste 8 Oeste 0 975.3 0.3 83
2020-01-08 22:00:00 5.3 4 Sur 5 Sur 0 975.2 0.2 81
2020-01-08 21:00:00 5.9 3 Sudoeste 5 Sudeste 0 975.1 0.5 81
2020-01-08 20:00:00 7.3 2 Sudeste 8 Sudeste 0 975 0.5 76
2020-01-08 19:00:00 9.6 5 Sur 8 Sudeste 0 975 0.5 71
2020-01-08 18:00:00 12.6 5 Sudoeste 6 Sudoeste 0 974.6 -0.1 63
2020-01-08 17:00:00 14.8 2 Norte 6 Noroeste 0 974.5 -1 53
2020-01-08 16:00:00 14.7 3 Oeste 8 Norte 0 974.5 -2 54
2020-01-08 15:00:00 13.8 2 Sur 5 Norte 0 974.7 -2.6 57
2020-01-08 14:00:00 11.2 2 Sur 7 Noroeste 0 975.5 -2.2 67
2020-01-08 13:00:00 7.9 2 Sudoeste 7 Norte 0 976.5 -0.8 78
2020-01-08 12:00:00 5.2 4 Norte 6 Norte 0 977.3 0.7 86
2020-01-08 11:00:00 3.7 4 Nordeste 6 Nordeste 0 977.7 1.4 93
2020-01-08 10:00:00 0.3 2 Nordeste 4 Norte 0 977.3 0.9 94
2020-01-08 09:00:00 -0.6 2 Noroeste 4 Sur 0 976.6 0.2 93
2020-01-08 08:00:00 -0.3 2 Norte 4 Sudoeste 0 976.3 -0.2 92
2020-01-08 07:00:00 1.3 4 Oeste 6 Sudoeste 0 976.4 -0.6 93
2020-01-08 06:00:00 1.8 6 Sudoeste 7 Sudoeste 0 976.4 -0.2 93
2020-01-08 05:00:00 1.3 3 Sudeste 8 Sur 0 976.5 -0.4 91
2020-01-08 04:00:00 1.6 4 Sur 7 Sur 0 977 -0.2 91
2020-01-08 03:00:00 2.4 3 Sudoeste 4 Sudoeste 0 976.6 -0.9 90
2020-01-08 02:00:00 2.8 2 Noroeste 4 Sur 0 976.9 -0.7 88
2020-01-08 01:00:00 3.2 0 Calma 6 Sudoeste 0 977.2 -0.3 87
2020-01-08 00:00:00 4.3 5 Sudoeste 6 Sudoeste 0 977.5 -0.1 85
2020-01-07 23:00:00 4.4 2 Sudoeste 4 Oeste 0 977.6 0.2 82
2020-01-07 22:00:00 4.9 0 Calma 7 Sudeste 0 977.5 0.3 80
2020-01-07 21:00:00 5.8 0 Calma 8 Sudeste 0 977.6 0.6 74
2020-01-07 20:00:00 6.8 3 Sur 7 Sudeste 0 977.4 0.6 69
2020-01-07 19:00:00 8.7 3 Sur 8 Sudeste 0 977.2 0.3 72
2020-01-07 18:00:00 13.1 3 Sur 5 Sudoeste 0 977 -0.3 61
2020-01-07 17:00:00 15.9 2 Oeste 5 Oeste 0 976.8 -1.3 47
2020-01-07 16:00:00 15.3 3 Sudoeste 7 Norte 0 976.9 -2 53
2020-01-07 15:00:00 13.2 4 Norte 8 Norte 0 977.3 -2.4 57
2020-01-07 14:00:00 10.5 3 Nordeste 8 Norte 0 978.1 -1.6 70
2020-01-07 13:00:00 7.4 4 Norte 6 Norte 0 978.9 -0.4 81
2020-01-07 12:00:00 3.9 4 Noroeste 9 Noroeste 0 979.7 1 92
2020-01-07 11:00:00 2.6 4 Norte 5 Norte 0 979.7 1.2 93
2020-01-07 10:00:00 0.5 2 Noroeste 5 Oeste 0 979.3 1 94
2020-01-07 09:00:00 -0.3 2 Noroeste 5 Sudoeste 0 978.7 0.7 93
2020-01-07 08:00:00 0.8 2 Este 7 Sudoeste 0 978.5 0.6 93
2020-01-07 07:00:00 0.7 2 Oeste 7 Sudoeste 0 978.3 0.3 92
2020-01-07 06:00:00 1.1 2 Sudoeste 6 Nordeste 0 978 0.2 90
2020-01-07 05:00:00 3 3 Sudoeste 5 Sudoeste 0 977.9 0.3 92
2020-01-07 04:00:00 2.8 6 Sudoeste 8 Sudoeste 0 978 0 92
2020-01-07 03:00:00 2.1 2 Sudoeste 7 Nordeste 0 977.8 0 90
2020-01-07 02:00:00 3.2 3 Sudeste 8 Sur 0 977.6 0.2 89
2020-01-07 01:00:00 3.5 0 Calma 9 Oeste 0 978 0.5 89
2020-01-07 00:00:00 3.4 8 Oeste 10 Oeste 0 977.8 0.8 88
2020-01-06 23:00:00 3.9 3 Sudeste 7 Sur 0 977.4 1.1 83
2020-01-06 22:00:00 5.3 4 Sur 7 Sudeste 0 977.5 1.6 80
2020-01-06 21:00:00 5.2 3 Sur 8 Sudeste 0 977 1.7 78
2020-01-06 20:00:00 7.4 5 Sur 7 Sudoeste 0 976.3 1.3 71
2020-01-06 19:00:00 7.9 2 Sudoeste 5 Sur 0 975.9 0.8 72
2020-01-06 18:00:00 12 4 Sudoeste 6 Sudoeste 0 975.3 0.3 57
2020-01-06 17:00:00 15.6 0 Calma 8 Noroeste 0 975 -0.8 47
2020-01-06 16:00:00 13.9 5 Noroeste 8 Norte 0 975.1 -1.6 50
2020-01-06 15:00:00 12.3 2 Sur 7 Norte 0 975 -2.5 59
2020-01-06 14:00:00 9.3 2 Norte 9 Noroeste 0 975.8 -1.7 75
2020-01-06 13:00:00 6.7 3 Oeste 7 Norte 0 976.7 -0.3 83
2020-01-06 12:00:00 3.7 5 Nordeste 9 Nordeste 0 977.5 1.3 93
2020-01-06 11:00:00 1.8 3 Sudoeste 5 Sudoeste 0 977.5 1.7 94
2020-01-06 10:00:00 0.1 4 Oeste 5 Sudoeste 0 977 1.9 93